Terminal Aerodrome Forecast
Issued by NWS

Home | Current Version | Previous Version | Text Only | Print | Product List | Glossary On
Versions: 1 2 3 4 5 6 7 8 9 10 11 12 13 14 15 16 17 18
000
FTUS45 KTFX 240500
TAFGTF
TAF
KGTF 240520Z 2406/2506 24012KT P6SM SCT150
     FM241400 21014KT P6SM BKN070
     FM241900 22015G25KT P6SM BKN070 OVC100 PROB30 2420/2424 6SM
      -SHRA BKN045
     FM250200 24012KT P6SM SCT120=

USA.gov is the U.S. government's official web portal to all federal, state and local government web resources and services.